Lima, Peru

12:26 PM PET on September 04, 2015 (GMT -0500)
Jorge Chavez International | | Change Station
CLOSE
Current Station
Airport
Location: Lima,
Elevation: 43 ft
Nearby Weather Stations

Elev 43 ft 12.01 °S, 77.12 °W | Updated 26 minutes ago

Overcast
Overcast
72 °F
Feels Like 72 °F
N
9
Wind Variable Wind from South

Today
High -- | Low -- °F
--% Chance of Precip.
Yesterday
High -- | Low -- °F
Precip. -- in
6:10 AM 6:04 PM
Waning Gibbous, 57% visible
Pressure 29.92 in
Visibility 6.2 miles
Clouds Overcast 2300 ft
Dew Point 61 °F
Humidity 69%
Rainfall 0.00 in
Snow Depth Not available.
UV 5 out of 12
Pollen Not available.
Air Quality Not available.
Flu Activity Not available.
METAR SPIM 041700Z 19008KT 160V230 9999 OVC023 22/16 Q1013 NOSIG RMK PP000
Pressure 29.92 in
Visibility 6.2 miles
Clouds Overcast 2300 ft
Dew Point 61 °F
Humidity 69%
Rainfall 0.00 in
Snow Depth Not available.
UV 5 out of 12
Pollen Not available.
Air Quality Not available.
Flu Activity Not available.
METAR SPIM 041700Z 19008KT 160V230 9999 OVC023 22/16 Q1013 NOSIG RMK PP000

10-Day Weather Forecast

×

Almanac

Astronomy

Sep. 04, 2015 Rise Set
Actual Time
Civil Twilight
Nautical Twilight
Astronomical Twilight
Moon
Length of Visible Light
Length of Day
Tomorrow will be .
, % of the Moon is Illuminated

Today's Extremes

Country Highs Country Lows

Community

WunderPhotos

Upload Photos

1,852,237 photos uploaded!

WunderBlogs® & News

Nearby

Air Quality

  Air Quality AQ Index Pollutant
Not available.

Snow Depth

Station Depth Elevation

Earthquake Activity

City Distance Mag. Time & Date
Minimum magnitude displayed is 2.5.

Coastal Water Temperatures

Place Temperature

Stations

Nearby Weather Stations

Station Location Temp. Windchill Dew Point Humidity Wind Precip. Elev Updated Type